Weather History for Superior, WI

Change the Weather History Date:

Monday, February 11, 2013

  Actual Average Record
Temperature  
Mean Temperature 26 °F -  
Max Temperature 32 °F 23 °F 16 °F (2014)
Min Temperature 21 °F 4 °F -18 °F (2014)
Degree Days  
Heating Degree Days 38    
Moisture  
Dew Point 20 °F    
Average Humidity 76    
Maximum Humidity 99    
Minimum Humidity 66    
Precipitation  
Precipitation 0.00 in - - ()
Sea Level Pressure  
Sea Level Pressure 29.67 in    
Wind  
Wind Speed 11 mph (NW)    
Max Wind Speed 22 mph    
Max Gust Speed 28 mph    
Visibility 10 miles    
Events Snow    
Averages and records for this station are not official NWS values.
T = Trace of Precipitation, MM = Missing Value Source: NWS Daily Summary

Daily Weather History Graph

Daily Weather History Graph

Search for Another Location

Airport:

Trip Planner

Search our weather history database for the weather conditions in past years. The results will help you decide how hot, cold, wet, or windy it might be!

Date:

Astronomy

Feb. 11, 2013 Rise Set
Actual Time 7:18 AM CST 5:27 PM CST
Civil Twilight 6:46 AM CST 5:59 PM CST
Nautical Twilight 6:11 AM CST 6:34 PM CST
Astronomical Twilight 5:36 AM CST 7:09 PM CST
Moon 7:33 AM CST (2/11) 7:35 PM CST (2/11)
Length of Visible Light 11h 12m
Length of Day
10h 09m
Waxing Crescent, 3% of the Moon is Illuminated
Feb 11
Waxing Crescent
Feb 17
First Quarter
Feb 25
Full
Mar 4
Last Quarter
Mar 11
New

Hourly Weather History & Observations

Time (CST) Temp. Windchill Dew Point Humidity Pressure Visibility Wind Dir Wind Speed Gust Speed Precip Events Conditions
12:15 AM 32.0 °F 23.6 °F 31.1 °F 96% 29.33 in 10.0 mi NE 10.4 mph 17.3 mph N/A   Overcast
12:35 AM 32.0 °F 23.0 °F 31.1 °F 96% 29.34 in 10.0 mi ENE 11.5 mph 20.7 mph N/A   Overcast
12:55 AM 32.0 °F 24.2 °F 31.1 °F 96% 29.34 in 10.0 mi NE 9.2 mph 16.1 mph N/A   Overcast
1:15 AM 32.2 °F 24.4 °F 31.5 °F 97% 29.35 in 10.0 mi NE 9.2 mph 17.3 mph N/A   Overcast
1:35 AM 32.0 °F 25.6 °F 31.6 °F 99% 29.36 in 2.5 mi NNE 6.9 mph - N/A Snow Light Snow
1:55 AM 32.0 °F 24.8 °F 31.6 °F 99% 29.36 in 2.5 mi NNE 8.1 mph - N/A Snow Light Snow
2:15 AM 32.0 °F 24.8 °F 31.1 °F 96% 29.36 in 4.0 mi NNE 8.1 mph - N/A Snow Light Snow
2:35 AM 31.8 °F 26.2 °F 30.6 °F 95% 29.37 in 3.0 mi NNE 5.8 mph - N/A Snow Light Snow
2:55 AM 31.6 °F 28.3 °F 30.6 °F 96% 29.37 in 4.0 mi North 3.5 mph - N/A Snow Light Snow
3:15 AM 31.1 °F 25.4 °F 29.1 °F 92% 29.38 in 7.0 mi NNW 5.8 mph - N/A Snow Light Snow
3:35 AM 31.1 °F 24.5 °F 28.0 °F 88% 29.39 in 10.0 mi North 6.9 mph - N/A   Overcast
3:55 AM 30.7 °F 22.6 °F 27.0 °F 86% 29.40 in 10.0 mi North 9.2 mph - N/A Snow Light Snow
4:15 AM 30.7 °F 22.6 °F 26.2 °F 83% 29.41 in 10.0 mi North 9.2 mph 17.3 mph N/A   Overcast
4:35 AM 30.2 °F 18.9 °F 25.5 °F 83% 29.43 in 10.0 mi NNW 16.1 mph 20.7 mph N/A   Overcast
4:55 AM 29.7 °F 19.1 °F 24.6 °F 81% 29.44 in 10.0 mi North 13.8 mph 23.0 mph N/A   Overcast
5:15 AM 29.1 °F 18.4 °F 23.9 °F 81% 29.45 in 10.0 mi North 13.8 mph 20.7 mph N/A   Overcast
5:55 AM 28.4 °F 16.6 °F 23.0 °F 80% 29.47 in 10.0 mi NNW 16.1 mph 20.7 mph N/A   Overcast
6:15 AM 27.9 °F 16.3 °F 22.6 °F 81% 29.48 in 10.0 mi NNW 15.0 mph - N/A   Overcast
6:35 AM 27.5 °F 15.9 °F 21.7 °F 79% 29.50 in 10.0 mi NNW 15.0 mph 21.9 mph N/A   Overcast
6:55 AM 27.3 °F 14.4 °F 21.6 °F 79% 29.51 in 10.0 mi NNW 18.4 mph 24.2 mph N/A   Overcast
7:15 AM 27.1 °F 15.4 °F 20.7 °F 77% 29.53 in 10.0 mi NNW 15.0 mph 26.5 mph N/A   Overcast
7:35 AM 26.6 °F 16.8 °F 20.3 °F 77% 29.55 in 10.0 mi NNW 10.4 mph 16.1 mph N/A   Overcast
7:55 AM 26.6 °F 15.7 °F 19.9 °F 76% 29.56 in 10.0 mi NNW 12.7 mph 18.4 mph N/A   Overcast
8:15 AM 26.6 °F 15.2 °F 19.8 °F 75% 29.57 in 10.0 mi NNW 13.8 mph 18.4 mph N/A   Overcast
8:35 AM 26.6 °F 14.3 °F 19.4 °F 74% 29.58 in 10.0 mi NNW 16.1 mph 20.7 mph N/A   Overcast
8:55 AM 26.2 °F 15.2 °F 18.7 °F 73% 29.59 in 10.0 mi NNW 12.7 mph 19.6 mph N/A   Overcast
9:15 AM 26.1 °F 15.6 °F 18.3 °F 73% 29.61 in 10.0 mi NNW 11.5 mph - N/A   Overcast
9:35 AM 25.7 °F 15.1 °F 17.6 °F 71% 29.62 in 10.0 mi NNW 11.5 mph 19.6 mph N/A   Overcast
9:55 AM 26.1 °F 15.6 °F 17.2 °F 69% 29.63 in 10.0 mi NNW 11.5 mph 16.1 mph N/A   Overcast
10:15 AM 26.2 °F 14.7 °F 17.4 °F 69% 29.64 in 10.0 mi NNW 13.8 mph 17.3 mph N/A   Overcast
10:35 AM 26.4 °F 16.6 °F 17.4 °F 69% 29.65 in 10.0 mi NNW 10.4 mph 19.6 mph N/A   Overcast
10:55 AM 26.4 °F 14.5 °F 17.4 °F 69% 29.66 in 10.0 mi NW 15.0 mph 20.7 mph N/A   Overcast
11:15 AM 26.2 °F 13.8 °F 17.1 °F 68% 29.68 in 10.0 mi NW 16.1 mph 21.9 mph N/A   Overcast
11:35 AM 26.1 °F 14.0 °F 16.9 °F 68% 29.69 in 10.0 mi NNW 15.0 mph 19.6 mph N/A   Overcast
11:55 AM 26.4 °F 14.5 °F 16.7 °F 67% 29.69 in 10.0 mi NW 15.0 mph 19.6 mph N/A   Overcast
12:15 PM 26.6 °F 13.1 °F 16.7 °F 66% 29.70 in 10.0 mi NW 19.6 mph - N/A   Overcast
12:35 PM 26.6 °F 13.1 °F 17.6 °F 69% 29.70 in 10.0 mi NNW 19.6 mph - N/A   Overcast
12:55 PM 25.9 °F 13.3 °F 16.5 °F 68% 29.71 in 10.0 mi NW 16.1 mph 25.3 mph N/A   Overcast
1:15 PM 26.2 °F 13.0 °F 17.2 °F 69% 29.73 in 10.0 mi NW 18.4 mph - N/A   Overcast
1:35 PM 26.2 °F 11.9 °F 17.4 °F 69% 29.73 in 10.0 mi NW 21.9 mph 25.3 mph N/A   Overcast
1:55 PM 25.7 °F 11.2 °F 17.2 °F 70% 29.75 in 10.0 mi NW 21.9 mph 27.6 mph N/A   Overcast
2:15 PM 25.7 °F 11.9 °F 16.9 °F 69% 29.76 in 10.0 mi NW 19.6 mph 26.5 mph N/A   Overcast
2:35 PM 26.6 °F 12.7 °F 17.4 °F 68% 29.76 in 10.0 mi WNW 20.7 mph 25.3 mph N/A   Overcast
2:55 PM 26.1 °F 13.6 °F 17.1 °F 69% 29.77 in 10.0 mi NW 16.1 mph 25.3 mph N/A   Overcast
3:15 PM 26.1 °F 13.1 °F 17.1 °F 69% 29.78 in 10.0 mi NW 17.3 mph 20.7 mph N/A   Overcast
3:35 PM 26.2 °F 14.7 °F 17.6 °F 70% 29.79 in 10.0 mi NW 13.8 mph 20.7 mph N/A   Overcast
3:55 PM 25.7 °F 13.1 °F 17.4 °F 71% 29.81 in 10.0 mi NW 16.1 mph 25.3 mph N/A   Overcast
4:55 PM 24.8 °F 12.4 °F 16.5 °F 71% 29.83 in 10.0 mi NW 15.0 mph - N/A   Overcast
5:15 PM 24.6 °F 13.8 °F 16.9 °F 72% 29.84 in 10.0 mi NW 11.5 mph 17.3 mph N/A   Overcast
5:35 PM 25.0 °F 13.6 °F 16.9 °F 71% 29.85 in 10.0 mi WNW 12.7 mph - N/A   Overcast
5:55 PM 24.6 °F 11.7 °F 16.7 °F 72% 29.86 in 10.0 mi NW 16.1 mph 21.9 mph N/A   Overcast
6:15 PM 23.9 °F 11.7 °F 16.3 °F 73% 29.87 in 10.0 mi WNW 13.8 mph - N/A   Overcast
6:35 PM 23.7 °F 14.0 °F 15.8 °F 72% 29.88 in 10.0 mi WNW 9.2 mph 19.6 mph N/A   Overcast
6:55 PM 23.7 °F 14.7 °F 15.1 °F 70% 29.89 in 10.0 mi WNW 8.1 mph - N/A   Overcast
7:15 PM 23.7 °F 16.6 °F 15.3 °F 70% 29.90 in 10.0 mi WNW 5.8 mph - N/A   Overcast
7:35 PM 23.7 °F 16.6 °F 15.4 °F 71% 29.91 in 10.0 mi West 5.8 mph - N/A   Overcast
7:55 PM 23.4 °F 13.5 °F 15.3 °F 71% 29.91 in 10.0 mi WNW 9.2 mph - N/A   Overcast
8:15 PM 22.8 °F 12.2 °F 14.7 °F 71% 29.91 in 10.0 mi WNW 10.4 mph 18.4 mph N/A   Mostly Cloudy
8:35 PM 22.1 °F 10.6 °F 14.2 °F 72% 29.92 in 10.0 mi WNW 11.5 mph 19.6 mph N/A   Scattered Clouds
8:55 PM 22.6 °F 10.7 °F 14.4 °F 71% 29.93 in 10.0 mi WNW 12.7 mph - N/A   Mostly Cloudy
9:15 PM 22.8 °F 12.9 °F 14.7 °F 71% 29.93 in 10.0 mi WNW 9.2 mph - N/A   Overcast
9:35 PM 22.6 °F 16.5 °F 14.5 °F 71% 29.93 in 10.0 mi WNW 4.6 mph - N/A   Overcast
9:55 PM 22.6 °F - 14.4 °F 71% 29.94 in 10.0 mi Calm Calm - N/A   Overcast
10:15 PM 21.9 °F 14.5 °F 14.5 °F 73% 29.94 in 10.0 mi West 5.8 mph - N/A   Overcast
10:35 PM 22.1 °F 15.9 °F 14.4 °F 72% 29.94 in 10.0 mi West 4.6 mph - N/A   Overcast
10:55 PM 22.1 °F 13.7 °F 14.2 °F 72% 29.95 in 10.0 mi West 6.9 mph - N/A   Overcast
11:15 PM 21.9 °F 14.5 °F 14.2 °F 72% 29.95 in 10.0 mi West 5.8 mph - N/A   Overcast
11:35 PM 21.6 °F 14.0 °F 14.7 °F 75% 29.95 in 10.0 mi WSW 5.8 mph - N/A   Overcast
11:55 PM 21.2 °F 12.6 °F 15.4 °F 78% 29.95 in 10.0 mi WSW 6.9 mph - N/A   Overcast